createdAt,value
2019-04-14T00:03:29.023Z,99.993896
2019-04-14T00:08:52.208Z,99.993896
2019-04-14T00:14:14.480Z,99.865723
2019-04-14T00:19:37.205Z,98.779297
2019-04-14T00:25:00.540Z,98.675537
2019-04-14T00:30:23.243Z,99.407959
2019-04-14T00:35:47.034Z,99.554443
2019-04-14T00:41:09.376Z,99.450684
2019-04-14T00:46:33.793Z,99.035645
2019-04-14T00:51:55.215Z,98.828125
2019-04-14T00:57:18.107Z,98.571777
2019-04-14T01:02:40.990Z,98.516846
2019-04-14T01:08:03.713Z,98.095703
2019-04-14T01:13:26.755Z,98.309326
2019-04-14T01:18:49.432Z,98.516846
2019-04-14T01:24:12.117Z,98.413086
2019-04-14T01:29:34.784Z,98.828125
2019-04-14T01:34:58.798Z,98.931885
2019-04-14T01:40:20.657Z,98.620605
2019-04-14T01:45:42.916Z,98.931885
2019-04-14T01:51:07.042Z,99.035645
2019-04-14T01:56:29.497Z,99.291992
2019-04-14T02:01:52.107Z,99.603271
2019-04-14T02:07:14.689Z,99.499512
2019-04-14T02:12:38.695Z,99.395752
2019-04-14T02:18:01.241Z,99.291992
2019-04-14T02:23:23.954Z,99.499512
2019-04-14T02:28:46.714Z,99.291992
2019-04-14T02:40:07.443Z,98.55957
2019-04-14T02:45:26.082Z,98.602295
2019-04-14T02:50:47.467Z,99.066162
2019-04-14T02:56:15.417Z,98.815918
2019-04-14T03:01:37.031Z,98.339844
2019-04-14T03:07:14.047Z,98.858643
2019-04-14T03:12:24.301Z,98.962402
2019-04-14T03:17:59.924Z,99.005127
2019-04-14T03:23:16.885Z,99.32251
2019-04-14T03:39:23.095Z,99.42627
2019-04-14T03:44:48.427Z,99.11499
2019-04-14T03:50:20.432Z,99.157715
2019-04-14T03:55:20.073Z,99.005127
2019-04-14T04:00:32.043Z,99.261475
2019-04-14T04:05:56.389Z,99.365234
2019-04-14T04:11:19.368Z,99.829102
2019-04-14T04:16:41.967Z,99.993896
2019-04-14T04:22:04.575Z,99.572754
2019-04-14T04:27:28.723Z,99.517822
2019-04-14T04:32:51.578Z,99.261475
2019-04-14T04:38:14.182Z,98.846436
2019-04-14T04:43:36.915Z,98.950195
2019-04-14T04:49:09.462Z,98.846436
2019-04-14T04:54:25.655Z,98.99292
2019-04-14T04:59:47.757Z,99.414062
2019-04-14T05:05:10.421Z,99.053955
2019-04-14T05:10:33.139Z,98.99292
2019-04-14T05:15:57.846Z,99.621582
2019-04-14T05:21:21.401Z,99.157715
2019-04-14T05:26:43.784Z,98.950195
2019-04-14T05:32:08.779Z,98.7854
2019-04-14T05:37:31.384Z,98.529053
2019-04-14T05:42:54.451Z,98.529053
2019-04-14T05:48:18.236Z,98.217773
2019-04-14T05:53:39.880Z,98.217773
2019-04-14T05:59:02.631Z,98.217773
2019-04-14T06:04:26.425Z,98.114014
2019-04-14T06:09:49.452Z,98.010254
2019-04-14T06:15:12.440Z,98.071289
2019-04-14T06:20:35.405Z,97.442627
2019-04-14T06:25:58.413Z,96.875
2019-04-14T06:31:24.752Z,96.148682
2019-04-14T06:36:47.578Z,95.581055
2019-04-14T06:42:10.258Z,95.062256
2019-04-14T06:47:33.393Z,93.97583
2019-04-14T06:52:56.342Z,93.621826
2019-04-14T06:58:19.676Z,92.016602
2019-04-14T07:03:42.659Z,91.351318
2019-04-14T07:09:05.494Z,90.057373
2019-04-14T07:14:31.408Z,89.599609
2019-04-14T07:20:01.211Z,88.208008
2019-04-14T07:25:14.892Z,86.962891
2019-04-14T07:30:38.093Z,86.950684
2019-04-14T07:36:00.991Z,85.144043
2019-04-14T07:41:23.671Z,83.447266
2019-04-14T07:46:46.390Z,84.210205
2019-04-14T07:52:09.077Z,86.657715
2019-04-14T07:57:31.934Z,81.945801
2019-04-14T08:02:56.782Z,78.771973
2019-04-14T08:08:19.516Z,81.402588
2019-04-14T08:13:42.158Z,78.607178
2019-04-14T08:19:05.065Z,79.473877
2019-04-14T08:24:27.715Z,82.4646
2019-04-14T08:29:50.498Z,78.668213
2019-04-14T08:35:13.449Z,76.287842
2019-04-14T08:40:36.121Z,76.049805
2019-04-14T08:45:58.917Z,75.085449
2019-04-14T08:51:21.581Z,75.909424
2019-04-14T08:56:44.960Z,74.328613
2019-04-14T09:02:07.618Z,75.671387
2019-04-14T09:07:30.363Z,77.697754
2019-04-14T09:12:53.075Z,71.032715
2019-04-14T09:18:16.991Z,70.684814
2019-04-14T09:23:39.710Z,67.285156
2019-04-14T09:29:03.454Z,71.270752
2019-04-14T09:34:26.429Z,68.078613
2019-04-14T09:39:49.854Z,67.736816
2019-04-14T09:45:12.754Z,68.054199
2019-04-14T09:50:35.389Z,63.342285
2019-04-14T09:55:58.152Z,66.345215
2019-04-14T10:01:20.935Z,65.087891
2019-04-14T10:06:43.742Z,63.867188
2019-04-14T10:12:06.434Z,60.882568
2019-04-14T10:17:29.201Z,63.983154
2019-04-14T10:22:51.827Z,64.385986
2019-04-14T10:28:14.560Z,62.872314
2019-04-14T10:33:37.325Z,61.175537
2019-04-14T10:38:59.982Z,62.286377
2019-04-14T10:44:22.669Z,60.443115
2019-04-14T10:49:45.324Z,61.981201
2019-04-14T10:55:08.028Z,57.507324
2019-04-14T11:00:31.065Z,62.902832
2019-04-14T11:05:53.906Z,54.89502
2019-04-14T11:11:16.624Z,55.712891
2019-04-14T11:16:39.316Z,53.771973
2019-04-14T11:22:02.039Z,58.807373
2019-04-14T11:27:24.751Z,54.205322
2019-04-14T11:32:47.430Z,56.152344
2019-04-14T11:38:10.119Z,53.411865
2019-04-14T11:43:32.818Z,53.027344
2019-04-14T11:48:55.558Z,55.761719
2019-04-14T11:54:18.615Z,52.807617
2019-04-14T11:59:41.344Z,53.668213
2019-04-14T12:05:04.069Z,54.693604
2019-04-14T12:10:26.761Z,53.546143
2019-04-14T12:15:50.320Z,56.915283
2019-04-14T12:21:13.062Z,58.172607
2019-04-14T12:26:36.180Z,58.380127
2019-04-14T12:31:59.583Z,57.36084
2019-04-14T12:37:22.557Z,59.179688
2019-04-14T12:42:45.737Z,58.612061
2019-04-14T12:48:08.516Z,58.099365
2019-04-14T12:53:31.223Z,60.400391
2019-04-14T12:58:53.946Z,55.889893
2019-04-14T13:04:16.590Z,56.842041
2019-04-14T13:09:39.285Z,57.562256
2019-04-14T13:15:02.887Z,61.437988
2019-04-14T13:20:25.270Z,59.954834
2019-04-14T13:25:47.961Z,60.205078
2019-04-14T13:31:10.633Z,59.851074
2019-04-14T13:36:33.354Z,61.260986
2019-04-14T13:41:56.074Z,59.326172
2019-04-14T13:47:18.749Z,58.612061
2019-04-14T13:52:46.810Z,59.796143
2019-04-14T13:58:04.730Z,60.131836
2019-04-14T14:03:27.377Z,59.796143
2019-04-14T14:08:50.013Z,59.234619
2019-04-14T14:14:12.700Z,58.691406
2019-04-14T14:19:36.146Z,61.743164
2019-04-14T14:24:58.778Z,60.583496
2019-04-14T14:30:21.479Z,57.202148
2019-04-14T14:35:44.133Z,61.535645
2019-04-14T14:41:06.852Z,59.25293
2019-04-14T14:46:30.845Z,60.491943
2019-04-14T14:51:54.996Z,64.251709
2019-04-14T14:57:17.710Z,64.660645
2019-04-14T15:02:40.416Z,64.483643
2019-04-14T15:08:04.055Z,64.044189
2019-04-14T15:13:27.448Z,62.060547
2019-04-14T15:18:50.193Z,63.269043
2019-04-14T15:24:13.096Z,63.238525
2019-04-14T15:29:35.935Z,64.501953
2019-04-14T15:34:58.717Z,65.765381
2019-04-14T15:40:21.429Z,66.101074
2019-04-14T15:45:44.170Z,65.997314
2019-04-14T15:51:06.877Z,67.272949
2019-04-14T15:56:29.669Z,66.656494
2019-04-14T16:01:52.430Z,66.61377
2019-04-14T16:07:15.221Z,66.925049
2019-04-14T16:12:37.863Z,68.499756
2019-04-14T16:18:01.630Z,68.499756
2019-04-14T16:23:24.294Z,67.675781
2019-04-14T16:28:47.028Z,69.525146
2019-04-14T16:34:09.661Z,70.379639
2019-04-14T16:39:32.339Z,70.10498
2019-04-14T16:44:55.943Z,70.10498
2019-04-14T16:50:19.197Z,71.307373
2019-04-14T16:55:42.460Z,72.302246
2019-04-14T17:01:05.072Z,73.431396
2019-04-14T17:06:27.794Z,75.939941
2019-04-14T17:11:51.238Z,79.58374
2019-04-14T17:17:14.848Z,83.435059
2019-04-14T17:22:37.514Z,82.855225
2019-04-14T17:28:00.147Z,84.301758
2019-04-14T17:33:22.822Z,84.545898
2019-04-14T17:38:46.293Z,85.412598
2019-04-14T17:44:09.941Z,86.651611
2019-04-14T17:49:32.571Z,87.579346
2019-04-14T17:54:55.225Z,89.129639
2019-04-14T18:00:17.868Z,89.892578
2019-04-14T18:05:42.424Z,90.100098
2019-04-14T18:11:05.079Z,91.070557
2019-04-14T18:16:27.849Z,91.235352
2019-04-14T18:21:50.617Z,91.131592
2019-04-14T18:27:13.264Z,91.339111
2019-04-14T18:32:37.800Z,91.546631
2019-04-14T18:38:00.457Z,91.589355
2019-04-14T18:43:23.212Z,91.278076
2019-04-14T18:48:45.970Z,90.765381
2019-04-14T18:54:09.701Z,90.661621
2019-04-14T18:59:32.413Z,90.869141
2019-04-14T19:04:55.344Z,90.765381
2019-04-14T19:10:18.037Z,91.174316
2019-04-14T19:15:44.237Z,91.381836
2019-04-14T19:21:07.018Z,91.589355
2019-04-14T19:26:30.333Z,92.315674
2019-04-14T19:31:53.094Z,91.589355
2019-04-14T19:37:15.893Z,92.523193
2019-04-14T19:42:39.451Z,91.900635
2019-04-14T19:48:02.135Z,91.589355
2019-04-14T19:53:24.867Z,91.381836
2019-04-14T19:58:47.649Z,91.174316
2019-04-14T20:04:10.359Z,91.174316
2019-04-14T20:09:34.442Z,91.796875
2019-04-14T20:14:57.649Z,92.047119
2019-04-14T20:20:20.453Z,91.943359
2019-04-14T20:25:43.152Z,91.63208
2019-04-14T20:31:05.942Z,91.943359
2019-04-14T20:36:28.624Z,92.871094
2019-04-14T20:41:51.437Z,92.871094
2019-04-14T20:47:14.204Z,92.767334
2019-04-14T20:52:36.990Z,92.767334
2019-04-14T20:57:59.685Z,92.871094
2019-04-14T21:03:22.391Z,92.871094
2019-04-14T21:08:45.109Z,93.389893
2019-04-14T21:14:07.841Z,94.012451
2019-04-14T21:19:30.594Z,93.347168
2019-04-14T21:24:53.333Z,93.762207
2019-04-14T21:30:16.037Z,93.658447
2019-04-14T21:35:39.477Z,93.554688
2019-04-14T21:41:02.160Z,94.073486
2019-04-14T21:46:25.916Z,94.586182
2019-04-14T21:51:49.262Z,94.586182
2019-04-14T21:57:13.037Z,94.378662
2019-04-14T22:02:35.736Z,94.073486
2019-04-14T22:07:58.509Z,94.378662
2019-04-14T22:13:21.263Z,94.689941
2019-04-14T22:18:43.967Z,94.378662
2019-04-14T22:24:06.610Z,94.073486
2019-04-14T22:29:29.399Z,94.689941
2019-04-14T22:34:52.027Z,94.482422
2019-04-14T22:40:14.780Z,94.689941
2019-04-14T22:45:38.429Z,95.251465
2019-04-14T22:51:01.084Z,95.458984
2019-04-14T22:56:23.757Z,95.874023
2019-04-14T23:01:47.459Z,95.977783
2019-04-14T23:07:10.306Z,95.52002
2019-04-14T23:12:32.958Z,95.52002
2019-04-14T23:17:55.620Z,95.52002
2019-04-14T23:23:18.373Z,95.623779
2019-04-14T23:28:41.864Z,95.3125
2019-04-14T23:34:04.586Z,95.727539
2019-04-14T23:39:27.313Z,95.52002
2019-04-14T23:44:49.980Z,95.727539
2019-04-14T23:50:12.715Z,95.831299
2019-04-14T23:55:35.373Z,96.032715
